Owosso, MI

4:30 AM EST on February 28, 2017 (GMT -0500)
Owosso

Weather History for KRNP - October, 2012

Change the Weather History Date:

Saturday, October 20, 2012

  Actual Average (KFNT) Record (KFNT)
Temperature  
Mean Temperature 49 °F -  
Max Temperature 54 °F 55 °F 81 °F (1953)
Min Temperature 44 °F 36 °F 21 °F (1952)
Degree Days  
Heating Degree Days 16    
Moisture  
Dew Point 46 °F    
Average Humidity 92    
Maximum Humidity 100    
Minimum Humidity 69    
Precipitation  
Precipitation 0.00 in - - ()
Sea Level Pressure  
Sea Level Pressure 29.70 in    
Wind  
Wind Speed 4 mph (WSW)    
Max Wind Speed 14 mph    
Max Gust Speed 21 mph    
Visibility 8 miles    
Events Rain    
Averages and records for this station are not official NWS values.
T = Trace of Precipitation, MM = Missing Value Source: NWS Daily Summary

Daily Weather History Graph

Daily Weather History Graph

Search for Another Location

Airport or City:

Trip Planner

Search our weather history database for the weather conditions in past years. The results will help you decide how hot, cold, wet, or windy it might be!

Date:

Astronomy

Oct. 20, 2012 Rise Set
Actual Time 7:56 AM EDT 6:45 PM EDT
Civil Twilight 7:27 AM EDT 7:13 PM EDT
Nautical Twilight 6:54 AM EDT 7:46 PM EDT
Astronomical Twilight 6:21 AM EDT 8:19 PM EDT
Moon 1:36 PM EDT (10/20) 11:25 PM EDT (10/20)
Length of Visible Light 11h 46m
Length of Day
10h 48m
Waxing Crescent, 34% of the Moon is Illuminated
Oct 20
Waxing Crescent
Oct 21
First Quarter
Oct 29
Full
Nov 6
Last Quarter
Nov 13
New

Hourly Weather History & Observations

Time (EDT) Temp. Windchill Dew Point Humidity Pressure Visibility Wind Dir Wind Speed Gust Speed Precip Events Conditions
12:15 AM 46.9 °F - 46.9 °F 100% 29.57 in 5.0 mi Calm Calm - N/A Rain Light Rain
12:35 AM 46.6 °F - 46.6 °F 100% 29.57 in 7.0 mi Calm Calm - N/A Rain Heavy Rain
12:55 AM 46.8 °F - 46.8 °F 100% 29.57 in 7.0 mi Calm Calm - N/A Rain Rain
1:15 AM 46.8 °F - 46.8 °F 100% 29.57 in 7.0 mi Calm Calm - N/A Rain Rain
1:35 AM 46.6 °F - 46.6 °F 100% 29.57 in 7.0 mi Calm Calm - N/A Rain Rain
1:55 AM 46.4 °F - 46.4 °F 100% 29.57 in 7.0 mi Calm Calm - N/A   Drizzle
2:15 AM 46.4 °F - 46.4 °F 100% 29.57 in 7.0 mi Calm Calm - N/A Rain Rain
2:35 AM 46.4 °F - 46.4 °F 100% 29.58 in 7.0 mi Calm Calm - N/A Rain Rain
2:55 AM 46.4 °F - 46.4 °F 100% 29.58 in 7.0 mi Calm Calm - N/A   Drizzle
3:15 AM 46.4 °F - 46.4 °F 100% 29.58 in 10.0 mi Calm Calm - N/A   Drizzle
3:36 AM 46.6 °F - 46.6 °F 100% 29.58 in 7.0 mi Calm Calm - N/A   Drizzle
3:55 AM 46.6 °F - 46.6 °F 100% 29.58 in 7.0 mi Calm Calm - N/A   Drizzle
4:15 AM 46.6 °F - 46.6 °F 100% 29.59 in 10.0 mi WSW 3.5 mph - N/A   Drizzle
4:35 AM 46.6 °F - 46.6 °F 100% 29.59 in 7.0 mi Calm Calm - N/A   Drizzle
4:55 AM 46.9 °F - 46.9 °F 100% 29.59 in 5.0 mi WSW 5.8 mph - N/A   Drizzle
5:15 AM 46.8 °F - 46.8 °F 100% 29.59 in 7.0 mi WSW 4.6 mph - N/A   Drizzle
5:35 AM 46.8 °F - 46.8 °F 100% 29.60 in 7.0 mi WSW 6.9 mph - N/A   Drizzle
5:55 AM 46.6 °F - 46.6 °F 100% 29.60 in 7.0 mi WSW 5.8 mph - N/A Rain Rain
6:15 AM 46.6 °F - 46.6 °F 100% 29.60 in 7.0 mi WSW 4.6 mph - N/A   Drizzle
6:35 AM 46.6 °F - 46.6 °F 100% 29.60 in 7.0 mi WSW 5.8 mph - N/A   Drizzle
6:55 AM 46.6 °F - 46.6 °F 100% 29.61 in 7.0 mi WSW 5.8 mph - N/A   Light Drizzle
7:15 AM 46.6 °F - 46.6 °F 100% 29.61 in 7.0 mi WSW 4.6 mph - N/A   Overcast
7:35 AM 46.4 °F 43.5 °F 46.4 °F 100% 29.62 in 7.0 mi WSW 5.8 mph - N/A   Overcast
7:55 AM 46.4 °F 43.5 °F 46.4 °F 100% 29.63 in 7.0 mi WSW 5.8 mph - N/A   Light Drizzle
8:16 AM 46.4 °F 42.9 °F 46.4 °F 100% 29.63 in 5.0 mi WSW 6.9 mph - N/A   Drizzle
8:35 AM 46.6 °F - 46.6 °F 100% 29.64 in 4.0 mi WSW 6.9 mph - N/A   Drizzle
8:55 AM 46.8 °F - 46.8 °F 100% 29.64 in 4.0 mi West 9.2 mph - N/A   Light Drizzle
9:15 AM 47.1 °F - 46.9 °F 99% 29.65 in 5.0 mi WSW 6.9 mph - N/A   Light Drizzle
9:35 AM 47.3 °F - 47.1 °F 99% 29.65 in 5.0 mi WSW 6.9 mph - N/A   Overcast
9:55 AM 47.5 °F - 47.1 °F 99% 29.65 in 7.0 mi WSW 9.2 mph - N/A   Overcast
10:15 AM 48.2 °F - 47.3 °F 97% 29.66 in 7.0 mi WSW 6.9 mph - N/A   Overcast
10:35 AM 48.6 °F - 47.3 °F 95% 29.67 in 10.0 mi West 10.4 mph - N/A   Overcast
10:55 AM 48.6 °F - 46.9 °F 94% 29.67 in 10.0 mi West 8.1 mph - N/A   Overcast
11:15 AM 49.5 °F - 47.5 °F 93% 29.68 in 10.0 mi West 9.2 mph - N/A   Overcast
11:35 AM 49.6 °F - 47.5 °F 92% 29.68 in 10.0 mi West 11.5 mph - N/A   Overcast
11:55 AM 50.4 °F - 47.7 °F 90% 29.69 in 10.0 mi West 11.5 mph - N/A   Overcast
12:15 PM 51.8 °F - 48.2 °F 88% 29.69 in 10.0 mi West 11.5 mph - N/A   Overcast
12:35 PM 52.9 °F - 48.2 °F 84% 29.69 in 10.0 mi West 10.4 mph 16.1 mph N/A   Mostly Cloudy
12:55 PM 53.2 °F - 47.7 °F 81% 29.69 in 10.0 mi West 11.5 mph 18.4 mph N/A   Mostly Cloudy
1:15 PM 54.1 °F - 47.3 °F 78% 29.70 in 10.0 mi West 13.8 mph 19.6 mph N/A   Overcast
1:35 PM 54.1 °F - 46.4 °F 75% 29.70 in 10.0 mi West 11.5 mph 18.4 mph N/A   Mostly Cloudy
1:55 PM 54.3 °F - 46.0 °F 74% 29.70 in 10.0 mi West 10.4 mph 16.1 mph N/A   Overcast
2:15 PM 54.0 °F - 45.7 °F 74% 29.71 in 10.0 mi WNW 10.4 mph 16.1 mph N/A   Overcast
2:35 PM 54.5 °F - 46.0 °F 73% 29.71 in 10.0 mi West 11.5 mph 17.3 mph N/A   Mostly Cloudy
2:55 PM 54.0 °F - 46.0 °F 75% 29.71 in 10.0 mi West 8.1 mph - N/A   Mostly Cloudy
3:15 PM 54.7 °F - 45.5 °F 71% 29.72 in 10.0 mi West 10.4 mph - N/A   Overcast
3:35 PM 54.5 °F - 44.8 °F 70% 29.72 in 10.0 mi West 12.7 mph 18.4 mph N/A   Overcast
3:56 PM 54.5 °F - 44.6 °F 69% 29.74 in 10.0 mi WNW 8.1 mph - N/A   Overcast
4:15 PM 54.5 °F - 44.8 °F 70% 29.74 in 10.0 mi WNW 6.9 mph - N/A   Overcast
4:35 PM 54.7 °F - 44.6 °F 69% 29.75 in 10.0 mi WNW 4.6 mph - N/A   Overcast
4:55 PM 54.5 °F - 45.0 °F 70% 29.76 in 10.0 mi WNW 4.6 mph - N/A Rain Light Rain
5:15 PM 53.6 °F - 46.4 °F 77% 29.76 in 10.0 mi Calm Calm - N/A   Drizzle
5:35 PM 52.9 °F - 46.8 °F 80% 29.78 in 7.0 mi WNW 13.8 mph 20.7 mph N/A Rain Heavy Rain
5:55 PM 50.9 °F - 47.8 °F 89% 29.79 in 10.0 mi WSW 5.8 mph - N/A Rain Rain
6:15 PM 50.9 °F - 48.2 °F 90% 29.79 in 10.0 mi WSW 5.8 mph - N/A   Overcast
6:35 PM 51.3 °F - 47.7 °F 87% 29.80 in 10.0 mi WSW 6.9 mph - N/A   Overcast
6:55 PM 51.1 °F - 47.7 °F 88% 29.81 in 10.0 mi WSW 8.1 mph - N/A Rain Light Rain
7:15 PM 50.0 °F - 48.0 °F 93% 29.81 in 10.0 mi WSW 6.9 mph - N/A   Overcast
7:36 PM 49.5 °F - 47.5 °F 93% 29.81 in 10.0 mi WSW 4.6 mph - N/A   Mostly Cloudy
7:55 PM 48.9 °F - 47.3 °F 94% 29.81 in 10.0 mi Calm Calm - N/A   Scattered Clouds
8:15 PM 47.8 °F - 46.4 °F 95% 29.81 in 10.0 mi WSW 3.5 mph - N/A   Clear
8:35 PM 47.5 °F - 46.4 °F 96% 29.82 in 10.0 mi WSW 4.6 mph - N/A   Clear
8:55 PM 47.8 °F - 46.4 °F 95% 29.83 in 10.0 mi SW 4.6 mph - N/A   Clear
9:15 PM 47.7 °F - 46.0 °F 94% 29.84 in 10.0 mi WSW 5.8 mph - N/A   Clear
9:35 PM 47.3 °F - 45.5 °F 93% 29.85 in 10.0 mi WSW 4.6 mph - N/A   Clear
9:55 PM 46.8 °F - 45.5 °F 95% 29.87 in 10.0 mi West 6.9 mph - N/A   Clear
10:15 PM 46.9 °F - 45.5 °F 95% 29.87 in 10.0 mi WSW 6.9 mph - N/A   Clear
10:35 PM 46.6 °F - 45.0 °F 94% 29.88 in 10.0 mi WSW 4.6 mph - N/A   Clear
10:55 PM 45.7 °F 43.4 °F 44.6 °F 96% 29.88 in 10.0 mi WSW 4.6 mph - N/A   Clear
11:15 PM 45.7 °F 44.4 °F 44.8 °F 97% 29.89 in 10.0 mi SW 3.5 mph - N/A   Clear
11:35 PM 44.6 °F 43.1 °F 44.1 °F 98% 29.89 in 10.0 mi SW 3.5 mph - N/A   Clear
11:55 PM 44.8 °F 42.4 °F 44.2 °F 98% 29.89 in 10.0 mi WSW 4.6 mph - N/A   Clear